Berryton, KS (66409)

4:37 AM CST on February 08, 2016 (GMT -0600)
Middleton Subdivision | | Change Station
CLOSE
Current Station
Personal Weather Station
Location: Berryton, KS
Elevation: 1093 ft
Nearby Weather Stations
Active Advisory: Wind Advisory

Elev 1093 ft 38.95 °N, 95.58 °W | Updated 13 seconds ago

Overcast
Overcast
35.4 °F
Feels Like 35 °F
N
2.7
Wind Variable Wind from WSW
Gusts 4.9 mph

Today
High -- | Low -- °F
--% Chance of Precip.
Yesterday
High -- | Low -- °F
Precip. -- in
Pressure 30.04 in
Visibility 10.0 miles
Clouds Overcast 6500 ft
Windchill 35 °F
Dew Point 14 °F
Humidity 41%
Rainfall 0.00 in
Snow Depth Not available.
7:22 AM 5:51 PM
Waning Crescent, 0% visible
METAR KFOE 080953Z AUTO 31017G26KT 10SM OVC065 03/M08 A3003 RMK AO2 PK WND 31029/0943 SLP173 T00281078
Pressure 30.04 in
Visibility 10.0 miles
Clouds Overcast 6500 ft
Windchill 35 °F
Dew Point 14 °F
Humidity 41%
Rainfall 0.00 in
Snow Depth Not available.
7:22 AM 5:51 PM
Waning Crescent, 0% visible
METAR KFOE 080953Z AUTO 31017G26KT 10SM OVC065 03/M08 A3003 RMK AO2 PK WND 31029/0943 SLP173 T00281078

10-Day Weather Forecast

Almanac

Astronomy

Feb. 08, 2016 Rise Set
Actual Time
Civil Twilight
Nautical Twilight
Astronomical Twilight
Moon
Length of Visible Light
Length of Day
Tomorrow will be .
, % of the Moon is Illuminated

Today's Extremes

State Highs State Lows

Community

WunderPhotos

Upload Photos

1,891,420 photos uploaded!

WunderBlog® & News

Nearby

Air Quality

  Air Quality AQ Index Pollutant
Not available.

Snow Depth

Station Depth Elevation

Earthquake Activity

City Distance Mag. Time & Date
Minimum magnitude displayed is 2.5.

Coastal Water Temperatures

Place Temperature

Stations

Nearby Weather Stations

Station Location Temp. Windchill Dew Point Humidity Wind Precip. Elev Updated Type
                   

Watches & Warnings

Wind Advisory
Issued: 3:01 AM CST Feb. 8, 2016 – National Weather Service

... Wind Advisory remains in effect from 8 am this morning to 6 PM
CST this evening...

* timing... wind speeds are expected to increase shortly after
sunrise and continue through the late afternoon.

* Winds... northwest winds will be sustained from 25 to 35 mph with
gusts of 40 to 50 mph.

* Impacts... loose and lightweight objects may be blown around by
the wind. Motorists should keep both hands on the steering
wheel. Light snow or flurries are also possible today. These
strong winds combined with any falling snow will likely result
in some reduced and quickly changing visibilities.

Precautionary/preparedness actions...

A Wind Advisory means that sustained winds of 30 mph or gusts to
45 mph are expected. Winds this strong can make driving
difficult... especially for high profile vehicles. Use extra
caution.